Time;durP1;ratioP1;P1;durP2;ratioP2;P2;SDS_P1;SDS_P2;PMS_P1;PMS_P2;Temp;Humidity;BMP_temperature;BMP_pressure;BME280_temperature;BME280_humidity;BME280_pressure;Samples;Min_cycle;Max_cycle;Signal;HPM_P1;HPM_P2
2023/11/16 09:10:37;;;;;;;2.30;2.08;;;;;;;;;;5116788;23;20506;-84
2023/11/16 09:13:03;;;;;;;3.80;2.67;;;;;;;;;;4977904;28;20067;-84
2023/11/16 09:15:29;;;;;;;4.47;2.33;;;;;;;;;;4977465;28;20411;-84
2023/11/16 09:17:55;;;;;;;4.45;2.25;;;;;;;;;;4977655;28;20052;-87
2023/11/16 09:20:24;;;;;;;3.25;2.10;;;;;;;;;;4959860;28;20496;-88
2023/11/16 09:22:50;;;;;;;2.92;2.72;;;;;;;;;;4960329;28;20086;-85
2023/11/16 09:25:24;;;;;;;3.88;2.25;;;;;;;;;;4960714;28;20062;-83
2023/11/16 09:27:58;;;;;;;3.53;2.00;;;;;;;;;;4977630;28;20034;-84
2023/11/16 09:30:27;;;;;;;2.50;1.88;;;;;;;;;;4977540;28;20370;-88
2023/11/16 09:32:57;;;;;;;2.15;1.73;;;;;;;;;;4960125;28;20425;-85
2023/11/16 09:35:23;;;;;;;1.95;1.83;;;;;;;;;;4977735;28;20046;-85
2023/11/16 09:37:52;;;;;;;2.33;1.80;;;;;;;;;;4977315;28;20493;-84
2023/11/16 09:40:28;;;;;;;3.45;2.10;;;;;;;;;;4977754;28;20031;-82
2023/11/16 09:43:16;;;;;;;3.75;2.22;;;;;;;;;;4961490;28;20033;-85
2023/11/16 09:45:43;;;;;;;4.07;1.95;;;;;;;;;;4962099;28;20038;-86
2023/11/16 09:48:12;;;;;;;2.55;2.00;;;;;;;;;;4977051;28;20375;-85
2023/11/16 09:50:44;;;;;;;2.38;2.00;;;;;;;;;;4977179;28;20027;-84
2023/11/16 09:53:14;;;;;;;2.33;2.10;;;;;;;;;;4977228;28;20030;-84
2023/11/16 09:55:44;;;;;;;2.30;1.90;;;;;;;;;;4959844;28;20029;-88
2023/11/16 09:58:17;;;;;;;3.30;1.90;;;;;;;;;;4976446;28;20122;-86
2023/11/16 10:00:48;;;;;;;3.40;1.88;;;;;;;;;;4977326;28;20022;-86
2023/11/16 10:03:21;;;;;;;3.15;1.48;;;;;;;;;;4959858;28;20478;-87
2023/11/16 10:05:47;;;;;;;2.25;1.80;;;;;;;;;;4959428;28;20130;-85
2023/11/16 10:08:15;;;;;;;2.10;1.55;;;;;;;;;;4976860;28;20078;-85
2023/11/16 10:11:07;;;;;;;2.00;1.80;;;;;;;;;;4976626;28;20051;-86
2023/11/16 10:13:35;;;;;;;1.83;1.60;;;;;;;;;;4972608;28;20043;-86
2023/11/16 10:16:08;;;;;;;1.85;1.75;;;;;;;;;;4976633;28;20106;-85
2023/11/16 10:18:35;;;;;;;2.70;1.75;;;;;;;;;;4976547;28;20030;-86
2023/11/16 10:21:04;;;;;;;2.65;1.50;;;;;;;;;;4976756;28;20113;-86
2023/11/16 10:23:30;;;;;;;2.13;1.60;;;;;;;;;;4976490;28;20031;-87
2023/11/16 10:25:58;;;;;;;2.83;1.60;;;;;;;;;;4976675;28;20031;-87
2023/11/16 10:28:23;;;;;;;2.35;1.70;;;;;;;;;;4959209;28;20389;-87
2023/11/16 10:30:53;;;;;;;2.38;1.88;;;;;;;;;;4976449;28;20023;-86
2023/11/16 10:33:23;;;;;;;2.67;1.60;;;;;;;;;;4958933;28;20087;-87
2023/11/16 10:35:50;;;;;;;1.83;1.70;;;;;;;;;;4976232;28;20023;-86
2023/11/16 10:38:22;;;;;;;1.92;1.70;;;;;;;;;;4976170;28;20034;-85
2023/11/16 10:40:53;;;;;;;2.28;2.00;;;;;;;;;;4976202;28;20037;-85
2023/11/16 10:43:27;;;;;;;3.47;2.85;;;;;;;;;;4978475;28;20500;-85
2023/11/16 10:45:54;;;;;;;5.68;3.78;;;;;;;;;;4978842;28;20058;-85
2023/11/16 10:48:21;;;;;;;2.50;2.05;;;;;;;;;;4981729;28;20022;-85
2023/11/16 10:50:47;;;;;;;1.95;1.65;;;;;;;;;;4977444;28;20086;-86
2023/11/16 10:53:22;;;;;;;2.00;1.70;;;;;;;;;;4979053;28;20023;-86
2023/11/16 10:55:51;;;;;;;2.13;1.92;;;;;;;;;;4976605;28;20034;-87
2023/11/16 10:58:29;;;;;;;3.45;1.70;;;;;;;;;;4958820;28;20026;-87
2023/11/16 11:01:07;;;;;;;4.22;3.10;;;;;;;;;;4976082;28;20034;-87
2023/11/16 11:03:39;;;;;;;3.50;2.33;;;;;;;;;;4959861;28;20105;-87
2023/11/16 11:06:07;;;;;;;2.30;1.63;;;;;;;;;;4975787;28;20038;-85
2023/11/16 11:08:38;;;;;;;3.75;2.85;;;;;;;;;;4974462;28;20015;-85
2023/11/16 11:11:04;;;;;;;4.30;2.63;;;;;;;;;;4958123;28;20069;-86
2023/11/16 11:13:32;;;;;;;6.38;3.10;;;;;;;;;;4942439;28;20027;-86
2023/11/16 11:16:07;;;;;;;2.35;1.98;;;;;;;;;;4975721;28;20114;-86
2023/11/16 11:18:44;;;;;;;3.03;2.10;;;;;;;;;;4975464;28;20059;-86
2023/11/16 11:21:10;;;;;;;3.25;2.22;;;;;;;;;;4958339;28;20122;-87
2023/11/16 11:23:40;;;;;;;3.65;2.17;;;;;;;;;;4958386;28;20110;-86
2023/11/16 11:26:06;;;;;;;2.97;2.33;;;;;;;;;;4975395;28;20026;-84
2023/11/16 11:28:38;;;;;;;2.45;1.80;;;;;;;;;;4975388;28;20114;-85
2023/11/16 11:31:05;;;;;;;2.60;2.10;;;;;;;;;;4975413;28;20053;-85
2023/11/16 11:33:41;;;;;;;1.65;1.55;;;;;;;;;;4975341;28;20058;-84
2023/11/16 11:36:12;;;;;;;2.53;2.10;;;;;;;;;;4957839;28;20022;-85
2023/11/16 11:38:38;;;;;;;2.80;1.48;;;;;;;;;;4975502;28;20382;-85
2023/11/16 11:41:12;;;;;;;1.85;1.75;;;;;;;;;;4975152;28;20110;-85
2023/11/16 11:43:40;;;;;;;1.83;1.73;;;;;;;;;;4975151;28;20054;-85
2023/11/16 11:46:08;;;;;;;2.00;1.80;;;;;;;;;;4975217;28;20027;-86
2023/11/16 11:48:35;;;;;;;2.50;1.88;;;;;;;;;;4975203;28;20027;-86
2023/11/16 11:51:06;;;;;;;2.00;1.85;;;;;;;;;;4975028;28;20366;-86
2023/11/16 11:53:35;;;;;;;1.88;1.65;;;;;;;;;;4975019;28;20034;-84
2023/11/16 11:56:06;;;;;;;2.50;1.90;;;;;;;;;;4975279;28;20022;-85
2023/11/16 11:58:42;;;;;;;3.72;2.20;;;;;;;;;;4974844;28;20026;-85
2023/11/16 12:01:11;;;;;;;2.45;1.75;;;;;;;;;;4974870;28;20034;-84
2023/11/16 12:03:57;;;;;;;3.05;2.20;;;;;;;;;;4957545;28;20528;-83
2023/11/16 12:06:23;;;;;;;2.40;1.70;;;;;;;;;;4974864;28;20031;-83
2023/11/16 12:08:49;;;;;;;2.40;1.80;;;;;;;;;;4974926;28;20442;-85
2023/11/16 12:11:18;;;;;;;3.53;2.17;;;;;;;;;;4974481;28;20051;-83
2023/11/16 12:13:49;;;;;;;2.28;1.75;;;;;;;;;;4974980;28;20019;-84
2023/11/16 12:16:15;;;;;;;2.80;2.08;;;;;;;;;;4974828;28;20136;-83
2023/11/16 12:18:48;;;;;;;1.73;1.60;;;;;;;;;;4974483;28;20062;-83
2023/11/16 12:21:17;;;;;;;1.75;1.60;;;;;;;;;;4980298;28;20478;-84
2023/11/16 12:23:50;;;;;;;1.80;1.70;;;;;;;;;;4981226;28;20045;-84
2023/11/16 12:26:29;;;;;;;4.60;1.90;;;;;;;;;;4981109;28;20118;-83
2023/11/16 12:28:55;;;;;;;2.13;1.73;;;;;;;;;;4981054;28;20030;-84
2023/11/16 12:31:21;;;;;;;4.13;1.80;;;;;;;;;;4981133;28;20501;-85
2023/11/16 12:33:50;;;;;;;1.77;1.58;;;;;;;;;;4981128;28;20520;-82
2023/11/16 12:36:24;;;;;;;2.25;1.70;;;;;;;;;;4963758;28;20031;-82
2023/11/16 12:38:52;;;;;;;2.20;2.00;;;;;;;;;;4980833;28;20109;-83
2023/11/16 12:41:19;;;;;;;3.97;2.00;;;;;;;;;;4981047;28;20019;-82
2023/11/16 12:43:44;;;;;;;2.40;1.67;;;;;;;;;;4963455;28;20027;-82
2023/11/16 17:50:41;;;;;;;5.25;2.90;;;;;;;;;;5121867;23;20043;-84
2023/11/16 17:53:06;;;;;;;5.43;3.35;;;;;;;;;;4960997;28;20118;-84
2023/11/16 17:55:33;;;;;;;4.15;3.00;;;;;;;;;;4958005;28;20039;-86
2023/11/16 17:58:03;;;;;;;5.57;3.53;;;;;;;;;;4956470;28;20047;-82
2023/11/16 18:00:28;;;;;;;5.13;3.97;;;;;;;;;;4957239;28;20027;-82
2023/11/16 18:02:54;;;;;;;4.60;3.42;;;;;;;;;;4957313;28;20029;-89
2023/11/16 18:05:20;;;;;;;4.10;3.38;;;;;;;;;;4957803;28;20031;-83
2023/11/16 18:07:47;;;;;;;6.10;3.70;;;;;;;;;;4957402;28;20027;-82
2023/11/16 18:10:13;;;;;;;23.13;14.23;;;;;;;;;;4957530;28;20110;-88
2023/11/16 18:12:39;;;;;;;23.10;14.82;;;;;;;;;;4957540;28;20027;-84
2023/11/16 18:15:05;;;;;;;121.93;55.10;;;;;;;;;;4957342;28;20027;-84
2023/11/16 18:17:34;;;;;;;13.75;8.23;;;;;;;;;;4956718;28;20035;-83
2023/11/16 18:20:00;;;;;;;13.27;7.30;;;;;;;;;;4956477;29;20034;-82
2023/11/16 18:22:26;;;;;;;12.20;6.47;;;;;;;;;;4951053;28;20026;-81
2023/11/16 18:24:52;;;;;;;7.70;4.13;;;;;;;;;;4938867;29;20461;-81
2023/11/16 18:27:18;;;;;;;5.40;4.15;;;;;;;;;;4956996;28;20110;-85
2023/11/16 18:29:44;;;;;;;5.60;4.50;;;;;;;;;;4948969;29;20038;-83
2023/11/16 18:32:10;;;;;;;8.50;4.40;;;;;;;;;;4945423;29;20031;-85
2023/11/16 18:34:41;;;;;;;6.68;3.90;;;;;;;;;;4957032;28;20461;-86
2023/11/16 18:37:12;;;;;;;5.28;4.13;;;;;;;;;;4955423;29;20027;-84
2023/11/16 18:39:38;;;;;;;4.47;3.05;;;;;;;;;;4955451;29;20023;-85
2023/11/16 18:42:04;;;;;;;4.05;2.97;;;;;;;;;;4956899;28;20038;-83
2023/11/16 18:44:31;;;;;;;10.48;6.38;;;;;;;;;;4937847;29;20035;-84
2023/11/16 18:46:57;;;;;;;11.40;9.68;;;;;;;;;;4936457;29;20407;-83
2023/11/16 18:49:22;;;;;;;12.02;7.60;;;;;;;;;;4936397;29;20439;-84
2023/11/16 18:51:50;;;;;;;9.23;6.45;;;;;;;;;;4948654;29;20162;-84
2023/11/16 18:54:16;;;;;;;9.82;6.28;;;;;;;;;;4939552;29;20114;-84
2023/11/16 18:56:42;;;;;;;9.93;7.35;;;;;;;;;;4957174;28;20076;-83
2023/11/16 18:59:07;;;;;;;9.60;6.50;;;;;;;;;;4939379;29;20039;-82
2023/11/16 19:01:33;;;;;;;11.18;6.78;;;;;;;;;;4957235;28;20455;-81
2023/11/16 19:03:59;;;;;;;8.65;6.35;;;;;;;;;;4956830;29;20042;-83
2023/11/16 19:06:25;;;;;;;8.20;6.28;;;;;;;;;;4939632;29;20027;-82
2023/11/16 19:08:53;;;;;;;9.27;6.43;;;;;;;;;;4956565;29;20102;-82
2023/11/16 19:11:18;;;;;;;10.90;6.68;;;;;;;;;;4956653;29;20053;-86
2023/11/16 19:13:44;;;;;;;8.20;6.10;;;;;;;;;;4973292;28;20469;-85
2023/11/16 19:16:10;;;;;;;8.48;5.25;;;;;;;;;;4975971;28;20029;-84
2023/11/16 19:18:35;;;;;;;6.65;4.13;;;;;;;;;;4975508;28;20031;-83
2023/11/16 19:21:04;;;;;;;10.27;3.47;;;;;;;;;;4975536;28;20538;-84
2023/11/16 19:23:31;;;;;;;5.88;3.50;;;;;;;;;;4975681;28;20026;-83
2023/11/16 19:25:58;;;;;;;4.57;3.17;;;;;;;;;;4975805;28;20051;-85
2023/11/16 19:28:27;;;;;;;4.15;3.03;;;;;;;;;;4975435;28;20054;-85
2023/11/16 19:30:54;;;;;;;7.80;3.60;;;;;;;;;;4974770;28;20057;-85
2023/11/16 19:33:20;;;;;;;6.57;3.40;;;;;;;;;;4975536;28;20019;-84
2023/11/16 19:35:46;;;;;;;4.30;3.25;;;;;;;;;;4975542;28;20022;-89
2023/11/16 19:38:12;;;;;;;5.63;3.55;;;;;;;;;;4975113;28;20034;-88
2023/11/16 19:40:38;;;;;;;9.20;4.00;;;;;;;;;;4975243;28;20026;-87
2023/11/16 19:43:09;;;;;;;4.82;4.30;;;;;;;;;;4975981;28;20046;-93
2023/11/16 19:45:36;;;;;;;4.75;3.92;;;;;;;;;;4959465;28;20381;-92
2023/11/16 19:48:01;;;;;;;6.32;4.70;;;;;;;;;;4959001;28;20454;-92
2023/11/16 19:50:27;;;;;;;5.88;4.40;;;;;;;;;;4976525;28;20054;-93
2023/11/16 19:52:52;;;;;;;5.28;3.60;;;;;;;;;;4986546;28;20027;-90
2023/11/16 19:55:19;;;;;;;4.30;3.50;;;;;;;;;;4978815;28;20031;-92
2023/11/16 19:57:44;;;;;;;5.65;4.40;;;;;;;;;;4975750;28;20030;-88
2023/11/16 20:00:15;;;;;;;8.95;5.68;;;;;;;;;;4958680;28;20030;-90
2023/11/16 20:02:41;;;;;;;10.95;6.35;;;;;;;;;;4976480;28;20022;-93
2023/11/16 20:05:07;;;;;;;11.52;6.40;;;;;;;;;;4959580;28;20106;-93
2023/11/16 20:07:33;;;;;;;6.75;5.00;;;;;;;;;;4958881;28;20031;-91
2023/11/16 20:09:58;;;;;;;14.15;7.18;;;;;;;;;;4976263;28;20034;-90
2023/11/16 20:12:25;;;;;;;9.15;6.25;;;;;;;;;;4958588;28;20050;-93
2023/11/16 20:14:56;;;;;;;11.35;6.38;;;;;;;;;;4958228;28;20046;-93
2023/11/16 20:17:25;;;;;;;9.32;6.55;;;;;;;;;;4957875;28;20125;-92
2023/11/16 20:19:55;;;;;;;12.20;7.35;;;;;;;;;;4958143;28;20504;-93
2023/11/16 20:22:20;;;;;;;10.73;7.28;;;;;;;;;;4957984;28;20030;-91
2023/11/16 20:24:46;;;;;;;13.50;7.78;;;;;;;;;;4958112;28;20035;-92
2023/11/16 20:27:11;;;;;;;12.00;8.35;;;;;;;;;;4975361;28;20023;-92
2023/11/16 20:29:37;;;;;;;10.30;7.03;;;;;;;;;;4958061;28;20023;-90
2023/11/16 20:32:05;;;;;;;11.20;6.63;;;;;;;;;;4957979;28;20532;-92
2023/11/16 20:34:31;;;;;;;9.85;6.93;;;;;;;;;;4958115;28;20030;-94
2023/11/16 20:36:57;;;;;;;9.27;6.85;;;;;;;;;;4975297;28;20393;-93
2023/11/16 20:39:24;;;;;;;13.13;6.97;;;;;;;;;;4957764;28;20031;-91
2023/11/16 20:41:50;;;;;;;11.20;7.93;;;;;;;;;;4977878;28;20034;-92
2023/11/16 20:44:15;;;;;;;15.10;8.07;;;;;;;;;;4979507;28;20022;-91
2023/11/16 20:46:41;;;;;;;13.18;9.25;;;;;;;;;;4961834;28;20390;-89
2023/11/16 20:49:07;;;;;;;12.10;8.60;;;;;;;;;;4978929;28;20433;-90
2023/11/16 20:51:33;;;;;;;14.40;9.45;;;;;;;;;;4978570;28;20043;-92
2023/11/16 20:53:58;;;;;;;11.38;8.50;;;;;;;;;;4978902;28;20101;-91
2023/11/16 20:56:24;;;;;;;11.90;7.72;;;;;;;;;;4961393;28;20398;-92
2023/11/16 20:58:49;;;;;;;11.13;7.88;;;;;;;;;;4961601;28;20497;-91
2023/11/16 21:01:16;;;;;;;11.55;7.20;;;;;;;;;;4961464;28;20027;-90
2023/11/16 21:03:41;;;;;;;10.05;6.90;;;;;;;;;;4961242;28;20114;-88
2023/11/16 21:06:07;;;;;;;11.70;7.82;;;;;;;;;;4978387;28;20029;-90
2023/11/16 21:08:33;;;;;;;13.43;9.45;;;;;;;;;;4978163;28;20031;-90
2023/11/16 21:10:58;;;;;;;14.52;9.45;;;;;;;;;;4961175;28;20027;-90
2023/11/16 21:13:24;;;;;;;13.48;8.80;;;;;;;;;;4977702;28;20058;-93
2023/11/16 21:15:49;;;;;;;9.90;7.20;;;;;;;;;;4961284;28;20121;-91
2023/11/16 21:18:14;;;;;;;10.15;6.85;;;;;;;;;;4960424;28;20070;-89
2023/11/16 21:20:41;;;;;;;9.93;6.63;;;;;;;;;;4960795;28;20038;-85
2023/11/16 21:23:07;;;;;;;9.75;7.57;;;;;;;;;;4977799;28;20026;-85
2023/11/16 21:25:32;;;;;;;13.55;7.93;;;;;;;;;;4977714;28;20031;-86
2023/11/16 21:27:58;;;;;;;12.88;7.32;;;;;;;;;;4960381;28;20030;-85
2023/11/16 21:30:23;;;;;;;9.00;7.20;;;;;;;;;;4960253;28;20046;-85
2023/11/16 21:32:49;;;;;;;9.77;6.45;;;;;;;;;;4977735;28;20058;-85
2023/11/16 21:35:14;;;;;;;9.38;6.93;;;;;;;;;;4977904;28;20062;-89
2023/11/16 21:37:46;;;;;;;10.80;7.20;;;;;;;;;;4960449;28;20106;-90
2023/11/16 21:40:12;;;;;;;10.50;6.60;;;;;;;;;;4977785;28;20027;-90
2023/11/16 21:42:39;;;;;;;8.18;6.55;;;;;;;;;;4960712;28;20023;-88
2023/11/16 21:45:06;;;;;;;8.32;6.13;;;;;;;;;;4960659;28;20027;-90
2023/11/16 21:47:36;;;;;;;10.52;6.68;;;;;;;;;;4978061;28;20031;-91
2023/11/16 21:50:04;;;;;;;9.38;6.90;;;;;;;;;;4960632;28;20027;-90
2023/11/16 21:52:30;;;;;;;7.60;5.57;;;;;;;;;;4959843;28;20078;-90
2023/11/16 21:54:56;;;;;;;7.32;5.88;;;;;;;;;;4960939;28;20027;-88
2023/11/16 21:57:21;;;;;;;8.52;6.55;;;;;;;;;;4959651;28;20077;-90
2023/11/16 21:59:47;;;;;;;10.38;7.07;;;;;;;;;;4977688;28;20023;-90
2023/11/16 22:02:15;;;;;;;9.05;6.13;;;;;;;;;;4977729;28;20418;-92
2023/11/16 22:04:40;;;;;;;10.05;6.72;;;;;;;;;;4960333;28;20041;-89
2023/11/16 22:07:06;;;;;;;8.63;6.15;;;;;;;;;;4960280;28;20031;-90
2023/11/16 22:09:32;;;;;;;8.95;6.50;;;;;;;;;;4960837;28;20113;-92
2023/11/16 22:11:58;;;;;;;10.68;7.05;;;;;;;;;;4977739;28;20027;-91
2023/11/16 22:14:23;;;;;;;8.85;6.60;;;;;;;;;;4960060;28;20035;-90
2023/11/16 22:16:50;;;;;;;10.43;6.85;;;;;;;;;;4977199;28;20110;-89
2023/11/16 22:19:16;;;;;;;9.90;7.32;;;;;;;;;;4975333;28;20389;-88
2023/11/16 22:21:41;;;;;;;9.80;6.97;;;;;;;;;;4959760;28;20078;-89
2023/11/16 22:24:09;;;;;;;9.50;7.18;;;;;;;;;;4977025;28;20118;-89
2023/11/16 22:26:35;;;;;;;11.05;7.03;;;;;;;;;;4959760;28;20393;-91
2023/11/16 22:29:01;;;;;;;9.25;6.70;;;;;;;;;;4959510;28;20126;-89
2023/11/16 22:31:26;;;;;;;10.82;7.07;;;;;;;;;;4959821;28;20482;-90
2023/11/16 22:33:52;;;;;;;10.23;6.57;;;;;;;;;;4977102;28;20034;-89
2023/11/16 22:36:18;;;;;;;10.48;7.18;;;;;;;;;;4960068;28;20027;-88
2023/11/16 22:38:44;;;;;;;11.63;7.47;;;;;;;;;;4959659;28;20034;-90
2023/11/16 22:41:10;;;;;;;8.93;6.90;;;;;;;;;;4959860;28;20022;-90
2023/11/16 22:43:36;;;;;;;11.65;8.07;;;;;;;;;;4959583;28;20058;-90
2023/11/16 22:46:01;;;;;;;9.68;7.05;;;;;;;;;;4959712;28;20033;-90
2023/11/16 22:48:27;;;;;;;13.95;7.20;;;;;;;;;;4959349;28;20023;-90
2023/11/16 22:50:56;;;;;;;9.15;6.75;;;;;;;;;;4956159;28;20047;-90
2023/11/16 22:53:21;;;;;;;8.82;6.63;;;;;;;;;;4957565;28;20027;-89
2023/11/16 22:55:47;;;;;;;10.02;6.55;;;;;;;;;;4955845;28;20027;-89
2023/11/16 22:58:13;;;;;;;9.32;6.28;;;;;;;;;;4955820;29;20170;-89
2023/11/16 23:00:45;;;;;;;9.10;6.38;;;;;;;;;;4956004;29;20118;-90
2023/11/16 23:03:12;;;;;;;7.78;6.00;;;;;;;;;;4956104;28;20478;-89
2023/11/16 23:05:38;;;;;;;8.52;5.93;;;;;;;;;;4955234;28;20034;-90
2023/11/16 23:08:09;;;;;;;10.10;6.40;;;;;;;;;;4956024;28;20031;-92
2023/11/16 23:10:34;;;;;;;12.55;6.65;;;;;;;;;;4955722;28;20032;-88
2023/11/16 23:13:03;;;;;;;9.77;6.28;;;;;;;;;;4956844;28;20027;-91
2023/11/16 23:15:29;;;;;;;7.80;5.93;;;;;;;;;;4956891;28;20103;-91
2023/11/16 23:17:54;;;;;;;8.43;6.35;;;;;;;;;;4955647;29;20459;-92
2023/11/16 23:20:27;;;;;;;8.07;5.85;;;;;;;;;;4956225;29;20051;-95
